Time;durP1;ratioP1;P1;durP2;ratioP2;P2;SDS_P1;SDS_P2;PMS_P1;PMS_P2;Temp;Humidity;BMP_temperature;BMP_pressure;BME280_temperature;BME280_humidity;BME280_pressure;Samples;Min_cycle;Max_cycle;Signal;HPM_P1;HPM_P2
2023/06/22 00:01:01;;;;;;;3.50;2.88;;;22.10;59.70;;;;;;5059243;28;20104;-82
2023/06/22 00:03:27;;;;;;;4.60;3.10;;;22.00;59.50;;;;;;5066301;28;20036;-81
2023/06/22 00:05:53;;;;;;;4.43;3.03;;;22.00;59.60;;;;;;5057999;28;20082;-82
2023/06/22 00:08:19;;;;;;;3.40;3.10;;;22.00;59.70;;;;;;5045502;28;20036;-82
2023/06/22 00:10:46;;;;;;;3.42;3.13;;;21.90;59.60;;;;;;5054043;28;20032;-82
2023/06/22 00:13:14;;;;;;;3.28;2.97;;;21.90;59.70;;;;;;5039515;28;20491;-83
2023/06/22 00:15:43;;;;;;;3.08;2.80;;;21.90;59.90;;;;;;5046423;28;20479;-82
2023/06/22 00:18:10;;;;;;;2.95;2.67;;;21.90;59.90;;;;;;5045884;28;20469;-82
2023/06/22 00:20:45;;;;;;;3.45;2.85;;;21.90;60.00;;;;;;5065573;28;20042;-82
2023/06/22 00:23:11;;;;;;;3.30;3.10;;;21.80;59.90;;;;;;5054541;28;20036;-84
2023/06/22 00:25:41;;;;;;;3.05;2.72;;;21.80;60.00;;;;;;5060545;28;20033;-84
2023/06/22 00:28:07;;;;;;;2.65;2.45;;;21.70;60.40;;;;;;5062053;28;20608;-83
2023/06/22 00:30:35;;;;;;;2.80;2.60;;;21.70;60.00;;;;;;5037728;28;20391;-82
2023/06/22 00:33:03;;;;;;;3.65;3.35;;;21.70;60.10;;;;;;5056798;28;20113;-84
2023/06/22 00:35:29;;;;;;;3.78;3.38;;;21.60;60.00;;;;;;5063228;28;20511;-83
2023/06/22 00:38:03;;;;;;;3.60;2.72;;;21.60;60.10;;;;;;5064388;28;20036;-83
2023/06/22 00:40:32;;;;;;;3.10;2.90;;;21.60;60.20;;;;;;5044091;28;20068;-83
2023/06/22 00:42:59;;;;;;;3.03;2.72;;;21.60;60.20;;;;;;5065268;28;20048;-84
2023/06/22 00:45:26;;;;;;;2.92;2.65;;;21.60;60.30;;;;;;5060717;28;20085;-85
2023/06/22 00:47:54;;;;;;;3.55;3.25;;;21.60;60.30;;;;;;5041199;28;20056;-83
2023/06/22 00:50:23;;;;;;;3.70;3.28;;;21.50;60.20;;;;;;5038614;28;20514;-84
2023/06/22 00:52:56;;;;;;;3.00;2.80;;;21.50;60.30;;;;;;5057933;28;20044;-84
2023/06/22 00:55:26;;;;;;;2.92;2.72;;;21.50;60.40;;;;;;5044408;28;20040;-84
2023/06/22 00:57:56;;;;;;;4.00;3.60;;;21.50;60.30;;;;;;5034938;28;20033;-85
2023/06/22 01:00:24;;;;;;;3.45;3.15;;;21.40;60.20;;;;;;5043078;28;20511;-84
2023/06/22 01:02:54;;;;;;;4.25;2.88;;;21.40;60.30;;;;;;5057433;28;20090;-84
2023/06/22 01:05:22;;;;;;;5.13;3.22;;;21.40;60.30;;;;;;5061106;28;20091;-83
2023/06/22 01:08:12;;;;;;;3.50;3.20;;;21.40;60.50;;;;;;5042746;28;20043;-83
2023/06/22 01:10:55;;;;;;;3.55;3.25;;;21.40;60.60;;;;;;5037664;28;20373;-83
2023/06/22 01:13:31;;;;;;;3.47;3.17;;;21.30;60.50;;;;;;5043507;28;20033;-83
2023/06/22 01:16:20;;;;;;;3.50;3.20;;;21.30;60.50;;;;;;5038068;28;20118;-83
2023/06/22 01:18:50;;;;;;;3.08;2.78;;;21.30;60.60;;;;;;5045619;28;20068;-83
2023/06/22 01:21:20;;;;;;;3.40;3.10;;;21.20;60.40;;;;;;5061550;28;20379;-82
2023/06/22 01:24:01;;;;;;;2.90;2.70;;;21.20;60.50;;;;;;5038700;28;20507;-84
2023/06/22 01:27:01;;;;;;;3.67;3.13;;;21.20;60.70;;;;;;5059688;28;20028;-84
2023/06/22 01:29:30;;;;;;;3.55;3.25;;;21.10;60.70;;;;;;5027163;28;20044;-84
2023/06/22 01:31:57;;;;;;;3.80;3.50;;;21.10;60.70;;;;;;5058849;28;20409;-84
2023/06/22 01:34:24;;;;;;;3.85;3.55;;;21.10;60.70;;;;;;5041871;28;20044;-83
2023/06/22 01:36:52;;;;;;;4.30;3.90;;;21.10;60.80;;;;;;5018464;28;20492;-83
2023/06/22 01:39:19;;;;;;;3.42;3.13;;;21.00;60.80;;;;;;5060420;28;20042;-83
2023/06/22 01:41:46;;;;;;;3.90;3.60;;;20.90;60.70;;;;;;5057125;28;20493;-82
2023/06/22 01:44:15;;;;;;;3.50;3.20;;;20.90;60.70;;;;;;5038281;28;20068;-82
2023/06/22 01:46:44;;;;;;;3.90;3.40;;;20.90;60.80;;;;;;5044213;28;20048;-82
2023/06/22 01:49:11;;;;;;;3.70;3.40;;;20.90;60.90;;;;;;5044739;28;20395;-79
2023/06/22 01:51:37;;;;;;;3.50;3.20;;;20.80;60.80;;;;;;5058020;28;20035;-81
2023/06/22 01:54:06;;;;;;;3.88;3.58;;;20.80;60.90;;;;;;5057203;28;20032;-80
2023/06/22 01:56:33;;;;;;;3.95;3.65;;;20.80;61.00;;;;;;5087044;28;20039;-80
2023/06/22 01:59:02;;;;;;;3.72;3.30;;;20.80;61.00;;;;;;5073855;28;20045;-79
2023/06/22 02:01:37;;;;;;;3.20;2.90;;;20.70;61.00;;;;;;5052360;28;20016;-80
2023/06/22 02:04:12;;;;;;;4.20;3.58;;;20.70;61.00;;;;;;5036591;28;20113;-80
2023/06/22 02:06:43;;;;;;;3.40;3.10;;;20.70;61.10;;;;;;5038263;28;20057;-79
2023/06/22 02:09:17;;;;;;;3.67;3.38;;;20.70;61.10;;;;;;5056316;28;20044;-79
2023/06/22 02:11:46;;;;;;;3.65;3.35;;;20.60;61.00;;;;;;5040579;28;20484;-80
2023/06/22 02:14:17;;;;;;;3.65;3.25;;;20.60;61.10;;;;;;5062610;28;20980;-81
2023/06/22 02:16:44;;;;;;;4.13;3.83;;;20.60;61.10;;;;;;5038305;28;20029;-82
2023/06/22 02:19:10;;;;;;;4.65;4.05;;;20.60;61.20;;;;;;5015295;28;20036;-82
2023/06/22 02:21:37;;;;;;;4.28;3.40;;;20.60;61.20;;;;;;5034062;28;20579;-82
2023/06/22 02:24:04;;;;;;;4.00;3.60;;;20.60;61.30;;;;;;5039101;28;20116;-81
2023/06/22 02:26:32;;;;;;;3.63;3.38;;;20.50;61.20;;;;;;5059031;28;20016;-81
2023/06/22 02:29:00;;;;;;;3.75;3.45;;;20.50;61.20;;;;;;5040128;28;20475;-81
2023/06/22 02:31:30;;;;;;;3.80;3.50;;;20.50;61.30;;;;;;5038656;28;20028;-81
2023/06/22 02:33:59;;;;;;;3.83;3.35;;;20.50;61.40;;;;;;5039431;28;20044;-82
2023/06/22 02:36:27;;;;;;;4.28;3.88;;;20.40;61.20;;;;;;5054436;28;20036;-82
2023/06/22 02:38:54;;;;;;;3.95;3.65;;;20.40;61.30;;;;;;5014463;28;20084;-82
2023/06/22 02:41:20;;;;;;;4.43;3.67;;;20.40;61.40;;;;;;5045920;28;20423;-82
2023/06/22 02:43:46;;;;;;;4.18;3.88;;;20.40;61.40;;;;;;5059645;28;20611;-82
2023/06/22 02:46:13;;;;;;;4.05;3.72;;;20.30;61.30;;;;;;5063124;28;20416;-82
2023/06/22 02:48:41;;;;;;;3.42;3.15;;;20.30;61.40;;;;;;5031073;28;20125;-82
2023/06/22 02:51:08;;;;;;;3.95;3.65;;;20.30;61.50;;;;;;5038827;28;20067;-82
2023/06/22 02:53:36;;;;;;;4.88;4.18;;;20.30;61.60;;;;;;5016844;28;20040;-82
2023/06/22 02:56:05;;;;;;;4.72;4.22;;;20.20;61.50;;;;;;5036859;28;20051;-82
2023/06/22 02:58:38;;;;;;;3.97;3.67;;;20.20;61.60;;;;;;5032320;28;20353;-83
2023/06/22 03:01:09;;;;;;;4.32;4.03;;;20.20;61.60;;;;;;5044010;28;20064;-85
2023/06/22 03:03:39;;;;;;;4.45;4.15;;;20.20;61.70;;;;;;5036786;28;20118;-84
2023/06/22 03:06:06;;;;;;;4.10;3.70;;;20.10;61.60;;;;;;5026457;28;20031;-84
2023/06/22 03:08:32;;;;;;;5.50;5.00;;;20.10;61.60;;;;;;5032029;28;20094;-84
2023/06/22 03:10:59;;;;;;;4.65;4.25;;;20.10;61.70;;;;;;5051245;28;20036;-85
2023/06/22 03:13:25;;;;;;;4.53;4.13;;;20.10;61.70;;;;;;5030070;28;20020;-84
2023/06/22 03:15:54;;;;;;;4.60;3.78;;;20.10;61.80;;;;;;5040889;28;20044;-84
2023/06/22 03:18:22;;;;;;;4.32;4.03;;;20.00;62.20;;;;;;5021179;28;20178;-84
2023/06/22 03:20:48;;;;;;;5.07;4.30;;;20.00;61.70;;;;;;5062352;28;20400;-83
2023/06/22 03:23:14;;;;;;;4.20;3.75;;;20.00;61.80;;;;;;5021077;28;20056;-82
2023/06/22 03:25:41;;;;;;;4.50;4.20;;;20.00;61.90;;;;;;5036255;28;20025;-82
2023/06/22 03:28:07;;;;;;;4.00;3.67;;;19.90;61.70;;;;;;5046343;28;20040;-81
2023/06/22 03:30:33;;;;;;;4.63;4.22;;;19.90;61.80;;;;;;5038237;28;20025;-80
2023/06/22 03:33:00;;;;;;;5.15;4.70;;;19.90;61.80;;;;;;5042813;28;20039;-79
2023/06/22 03:35:27;;;;;;;4.35;4.03;;;19.90;61.90;;;;;;5044610;28;20097;-81
2023/06/22 03:37:53;;;;;;;4.30;3.90;;;19.90;62.00;;;;;;5047575;28;20041;-80
2023/06/22 03:40:20;;;;;;;4.53;4.13;;;19.80;61.80;;;;;;5025902;28;20542;-83
2023/06/22 03:43:06;;;;;;;5.18;4.07;;;19.80;61.90;;;;;;4946301;28;20051;-82
2023/06/22 03:45:32;;;;;;;4.43;4.03;;;19.70;61.80;;;;;;5039248;28;20064;-83
2023/06/22 03:48:01;;;;;;;4.25;3.85;;;19.70;61.80;;;;;;5036141;28;20045;-82
2023/06/22 03:50:28;;;;;;;4.97;4.47;;;19.70;61.90;;;;;;5037299;28;20120;-82
2023/06/22 03:52:54;;;;;;;4.30;3.90;;;19.70;61.90;;;;;;5024959;28;20022;-82
2023/06/22 03:55:20;;;;;;;4.20;3.85;;;19.70;62.00;;;;;;5038907;28;20086;-83
2023/06/22 03:57:46;;;;;;;4.75;4.35;;;19.60;61.90;;;;;;5025260;28;20075;-83
2023/06/22 04:00:13;;;;;;;4.20;3.80;;;19.60;61.90;;;;;;5024016;28;20064;-82
2023/06/22 04:02:40;;;;;;;5.05;4.38;;;19.60;62.00;;;;;;5024357;28;20195;-82
2023/06/22 04:05:08;;;;;;;4.45;3.97;;;19.60;62.00;;;;;;5021438;28;20492;-82
2023/06/22 04:07:36;;;;;;;4.50;4.10;;;19.60;62.60;;;;;;5043310;28;20037;-82
2023/06/22 04:10:04;;;;;;;5.55;4.72;;;19.50;61.90;;;;;;5032914;28;20032;-82
2023/06/22 04:12:30;;;;;;;4.93;4.53;;;19.50;62.00;;;;;;5028946;28;20036;-82
2023/06/22 04:14:56;;;;;;;4.60;4.20;;;19.50;62.00;;;;;;5033236;28;20113;-83
2023/06/22 04:17:24;;;;;;;4.93;4.53;;;19.50;62.10;;;;;;5033566;28;20461;-82
2023/06/22 04:19:51;;;;;;;4.40;4.00;;;19.50;62.10;;;;;;5023475;28;20485;-82
2023/06/22 04:22:17;;;;;;;4.70;4.30;;;19.50;62.10;;;;;;5023322;28;20036;-82
2023/06/22 04:24:46;;;;;;;4.03;3.72;;;19.40;62.00;;;;;;5028541;28;20084;-82
2023/06/22 04:27:15;;;;;;;5.03;4.57;;;19.40;62.00;;;;;;5026211;28;20057;-82
2023/06/22 04:29:48;;;;;;;5.13;4.63;;;19.40;62.00;;;;;;5024427;28;20624;-81
2023/06/22 04:32:15;;;;;;;4.80;4.40;;;19.40;62.00;;;;;;5032445;28;20038;-82
2023/06/22 04:34:42;;;;;;;4.25;3.85;;;19.40;62.00;;;;;;5036032;28;20061;-82
2023/06/22 04:37:09;;;;;;;4.20;3.88;;;19.40;62.10;;;;;;5024973;28;20064;-82
2023/06/22 04:39:35;;;;;;;4.72;4.32;;;19.40;62.10;;;;;;5035125;28;20032;-82
2023/06/22 04:42:02;;;;;;;5.22;4.72;;;19.40;62.10;;;;;;5040233;28;20032;-82
2023/06/22 04:44:28;;;;;;;5.05;4.55;;;19.50;62.30;;;;;;5040767;28;20130;-82
2023/06/22 04:47:03;;;;;;;5.47;4.97;;;19.40;62.10;;;;;;5041012;28;20106;-82
2023/06/22 04:49:34;;;;;;;5.03;4.53;;;19.50;62.30;;;;;;5051100;28;20029;-81
2023/06/22 04:52:01;;;;;;;5.55;4.88;;;19.50;62.20;;;;;;5056902;28;20644;-82
2023/06/22 04:54:35;;;;;;;4.30;4.00;;;19.50;62.20;;;;;;5049240;28;20038;-82
2023/06/22 04:57:03;;;;;;;5.07;4.15;;;19.50;62.20;;;;;;5061282;28;20458;-84
2023/06/22 04:59:31;;;;;;;4.90;4.50;;;19.50;62.20;;;;;;5061396;28;20032;-80
2023/06/22 05:01:58;;;;;;;4.93;4.53;;;19.50;62.20;;;;;;5058197;28;20032;-82
2023/06/22 05:04:25;;;;;;;5.43;4.93;;;19.50;62.10;;;;;;5056595;28;20420;-80
2023/06/22 05:06:52;;;;;;;5.95;5.18;;;19.60;62.30;;;;;;5058820;28;20130;-82
2023/06/22 05:09:18;;;;;;;5.18;4.78;;;19.50;62.10;;;;;;5025731;28;20668;-83
2023/06/22 05:11:45;;;;;;;5.72;4.72;;;19.60;62.30;;;;;;5041869;28;20066;-82
2023/06/22 05:14:12;;;;;;;5.57;4.97;;;19.60;62.20;;;;;;5036912;28;20032;-78
2023/06/22 05:16:39;;;;;;;7.18;5.10;;;19.60;62.20;;;;;;5037141;28;20071;-79
2023/06/22 05:19:05;;;;;;;5.28;4.72;;;19.70;62.30;;;;;;5067453;28;20397;-81
2023/06/22 05:21:32;;;;;;;5.30;4.80;;;19.70;62.20;;;;;;5078149;28;20063;-80
2023/06/22 05:24:00;;;;;;;6.40;5.40;;;19.80;62.30;;;;;;5084288;28;20028;-80
2023/06/22 05:26:30;;;;;;;5.63;5.13;;;19.80;62.30;;;;;;5048772;28;20162;-80
2023/06/22 05:29:01;;;;;;;6.55;5.40;;;19.90;62.30;;;;;;5057091;28;20036;-81
2023/06/22 05:31:27;;;;;;;5.88;5.38;;;20.00;62.30;;;;;;5057616;28;20032;-80
2023/06/22 05:33:55;;;;;;;5.45;4.95;;;20.00;62.20;;;;;;5061306;28;20132;-82
2023/06/22 05:36:24;;;;;;;5.32;4.93;;;20.10;62.20;;;;;;5052568;28;20376;-81
2023/06/22 05:38:52;;;;;;;6.32;5.78;;;20.20;62.30;;;;;;5035624;28;20471;-81
2023/06/22 05:41:18;;;;;;;5.22;4.72;;;20.30;62.80;;;;;;5057397;28;20036;-80
2023/06/22 05:43:44;;;;;;;5.80;4.82;;;20.40;62.30;;;;;;5038491;28;20044;-81
2023/06/22 05:46:10;;;;;;;6.82;6.13;;;20.60;62.50;;;;;;5036866;28;20444;-80
2023/06/22 05:48:36;;;;;;;5.82;5.32;;;20.70;62.50;;;;;;5027602;28;20040;-80
2023/06/22 05:51:03;;;;;;;5.65;5.03;;;20.80;62.40;;;;;;5059401;28;20033;-83
2023/06/22 05:53:29;;;;;;;8.27;6.65;;;21.00;62.60;;;;;;5025791;28;20029;-80
2023/06/22 05:55:58;;;;;;;5.65;5.15;;;21.10;62.50;;;;;;5056034;28;20102;-80
2023/06/22 05:58:24;;;;;;;7.03;6.32;;;21.30;62.70;;;;;;5058375;28;20056;-83
2023/06/22 06:00:50;;;;;;;7.40;6.63;;;21.50;62.80;;;;;;5057793;28;20037;-82
2023/06/22 06:03:16;;;;;;;6.97;6.28;;;21.70;63.00;;;;;;5035833;28;20044;-82
2023/06/22 06:05:44;;;;;;;7.32;6.70;;;21.80;62.90;;;;;;5034559;28;20037;-83
2023/06/22 06:08:11;;;;;;;7.88;7.07;;;22.00;63.00;;;;;;5036542;28;20028;-84
2023/06/22 06:10:37;;;;;;;7.68;6.97;;;22.30;63.20;;;;;;5058307;28;20111;-84
2023/06/22 06:13:04;;;;;;;7.68;6.90;;;22.50;63.30;;;;;;5052107;28;20407;-83
2023/06/22 06:15:34;;;;;;;7.15;6.43;;;22.70;63.30;;;;;;5052401;28;20070;-84
2023/06/22 06:18:01;;;;;;;7.32;6.65;;;22.90;63.30;;;;;;5036287;28;20037;-84
2023/06/22 06:20:27;;;;;;;7.45;6.65;;;23.20;63.50;;;;;;5040034;28;20044;-83
2023/06/22 06:22:54;;;;;;;7.85;7.15;;;23.30;63.30;;;;;;5057289;28;20147;-83
2023/06/22 06:25:21;;;;;;;7.38;6.68;;;23.60;63.40;;;;;;5024819;28;20036;-84
2023/06/22 06:27:49;;;;;;;8.40;7.57;;;23.90;63.50;;;;;;5018601;28;20496;-84
2023/06/22 06:30:18;;;;;;;7.47;6.78;;;24.10;63.40;;;;;;5041282;28;20040;-86
2023/06/22 06:32:45;;;;;;;7.70;6.90;;;24.50;63.50;;;;;;5015828;28;20060;-85
2023/06/22 06:35:16;;;;;;;8.90;6.93;;;24.80;63.40;;;;;;5056527;28;20198;-82
2023/06/22 06:37:44;;;;;;;7.50;6.80;;;25.20;63.10;;;;;;5016726;28;20232;-83
2023/06/22 06:40:12;;;;;;;7.65;6.90;;;25.60;62.50;;;;;;5040460;28;20492;-82
2023/06/22 06:42:45;;;;;;;7.18;6.57;;;26.00;61.80;;;;;;5056802;28;20430;-84
2023/06/22 06:45:22;;;;;;;6.55;6.03;;;26.30;61.10;;;;;;5053548;28;20044;-84
2023/06/22 06:47:52;;;;;;;7.85;6.25;;;26.70;60.50;;;;;;5041487;28;20056;-85
2023/06/22 06:50:18;;;;;;;7.50;6.60;;;27.00;59.90;;;;;;5054006;28;20033;-84
2023/06/22 06:52:44;;;;;;;7.18;6.55;;;27.40;59.30;;;;;;5055382;28;20017;-83
2023/06/22 06:55:14;;;;;;;7.07;6.38;;;27.70;58.50;;;;;;5037857;28;20593;-83
2023/06/22 06:57:43;;;;;;;6.85;6.22;;;28.10;57.80;;;;;;5036877;28;20210;-89
2023/06/22 07:00:13;;;;;;;9.15;6.40;;;28.50;57.00;;;;;;5039302;28;20063;-82
2023/06/22 07:02:40;;;;;;;6.20;5.65;;;28.90;56.20;;;;;;5048649;28;20048;-82
2023/06/22 07:05:06;;;;;;;6.03;5.53;;;29.30;55.60;;;;;;5038681;28;20035;-81
2023/06/22 07:07:32;;;;;;;6.88;6.18;;;29.60;54.80;;;;;;5038560;28;20107;-82
2023/06/22 07:09:59;;;;;;;6.72;6.10;;;30.00;54.20;;;;;;5031044;28;20552;-83
2023/06/22 07:12:29;;;;;;;6.75;5.65;;;30.30;53.50;;;;;;5028096;28;20031;-83
2023/06/22 07:15:07;;;;;;;5.95;5.35;;;30.60;52.90;;;;;;5056434;28;20040;-83
2023/06/22 07:17:34;;;;;;;6.18;5.57;;;30.90;52.20;;;;;;5021491;28;20597;-82
2023/06/22 07:20:10;;;;;;;6.75;5.43;;;31.20;51.80;;;;;;5030351;28;20143;-82
2023/06/22 07:22:40;;;;;;;6.05;5.18;;;31.30;51.50;;;;;;5050745;28;20064;-82
2023/06/22 07:25:09;;;;;;;5.45;4.95;;;31.30;51.50;;;;;;5033738;28;20036;-82
2023/06/22 07:27:43;;;;;;;6.90;5.43;;;31.30;51.40;;;;;;5015924;28;20036;-82
2023/06/22 07:30:12;;;;;;;5.38;4.97;;;31.40;51.40;;;;;;5035256;28;20500;-82
2023/06/22 07:32:39;;;;;;;5.55;5.07;;;31.50;51.40;;;;;;5053747;28;20247;-82
2023/06/22 07:35:07;;;;;;;7.45;5.07;;;31.80;50.80;;;;;;5054111;28;20412;-79
2023/06/22 07:37:34;;;;;;;7.47;5.70;;;32.20;49.70;;;;;;5031955;28;20041;-83
2023/06/22 07:40:00;;;;;;;5.57;4.57;;;32.60;48.70;;;;;;5060266;28;20028;-82
2023/06/22 07:42:27;;;;;;;5.03;4.50;;;32.90;48.00;;;;;;5023464;28;20543;-83
2023/06/22 07:44:54;;;;;;;5.07;4.40;;;33.30;47.40;;;;;;5023575;28;20033;-83
2023/06/22 07:47:24;;;;;;;5.80;4.43;;;33.70;46.80;;;;;;5039167;28;20052;-83
2023/06/22 07:49:51;;;;;;;4.55;3.85;;;34.00;46.20;;;;;;5059082;28;20035;-85
2023/06/22 07:52:20;;;;;;;4.03;3.70;;;34.50;45.60;;;;;;5047731;28;20029;-84
2023/06/22 07:54:53;;;;;;;4.25;3.47;;;35.00;45.00;;;;;;5034851;28;20456;-82
2023/06/22 07:57:19;;;;;;;4.10;3.70;;;35.30;44.30;;;;;;5058568;28;20111;-82
2023/06/22 07:59:45;;;;;;;4.78;3.80;;;35.70;43.90;;;;;;5049311;28;20362;-83
2023/06/22 08:02:12;;;;;;;3.83;3.00;;;36.00;43.40;;;;;;5044214;28;20121;-84
2023/06/22 08:04:41;;;;;;;4.63;3.03;;;36.10;43.20;;;;;;5046846;28;20047;-83
2023/06/22 08:07:10;;;;;;;2.80;2.60;;;36.00;43.50;;;;;;5038262;28;20147;-82
2023/06/22 08:09:36;;;;;;;3.00;2.78;;;35.70;43.90;;;;;;5060838;28;20358;-82
2023/06/22 08:12:06;;;;;;;3.70;2.80;;;35.40;44.30;;;;;;5048487;28;20060;-83
2023/06/22 08:14:32;;;;;;;3.00;2.67;;;35.10;44.60;;;;;;5054491;28;20535;-82
2023/06/22 08:16:58;;;;;;;3.58;3.28;;;35.00;45.00;;;;;;5057582;28;20677;-82
2023/06/22 08:19:24;;;;;;;2.97;2.60;;;34.70;45.10;;;;;;5043707;28;20078;-83
2023/06/22 08:21:51;;;;;;;2.80;2.60;;;34.50;45.40;;;;;;5050515;28;20046;-82
2023/06/22 08:24:17;;;;;;;2.97;2.65;;;34.40;45.50;;;;;;5057938;28;20037;-82
2023/06/22 08:26:43;;;;;;;3.05;2.85;;;34.30;45.70;;;;;;5036529;28;20039;-83
2023/06/22 08:29:09;;;;;;;2.90;2.33;;;34.20;45.70;;;;;;5039119;28;20225;-83
2023/06/22 08:31:35;;;;;;;3.20;2.90;;;34.20;45.70;;;;;;5056889;28;20020;-83
2023/06/22 08:34:01;;;;;;;2.47;2.28;;;34.10;45.70;;;;;;5044625;28;20443;-82
2023/06/22 08:36:32;;;;;;;2.95;2.75;;;34.10;45.70;;;;;;5033532;28;20033;-82
2023/06/22 08:39:02;;;;;;;2.90;2.70;;;34.10;45.50;;;;;;5058602;28;20044;-83
2023/06/22 08:41:29;;;;;;;2.80;2.53;;;34.00;45.50;;;;;;5039720;28;20036;-85
2023/06/22 08:43:55;;;;;;;3.15;2.63;;;34.00;45.50;;;;;;5054908;28;20055;-85
2023/06/22 08:46:24;;;;;;;2.85;2.65;;;34.10;45.60;;;;;;5057173;28;20564;-82
2023/06/22 08:48:53;;;;;;;2.67;2.47;;;34.10;45.60;;;;;;5050743;28;20035;-81
2023/06/22 08:51:19;;;;;;;3.47;3.17;;;34.00;45.40;;;;;;5038740;28;20017;-81
2023/06/22 08:53:47;;;;;;;3.13;2.70;;;34.00;45.30;;;;;;5050115;28;20036;-81
2023/06/22 08:56:16;;;;;;;2.70;2.50;;;34.00;45.20;;;;;;5029163;28;20613;-81
2023/06/22 08:58:42;;;;;;;3.00;2.67;;;34.00;45.10;;;;;;5035492;28;20545;-82
2023/06/22 09:01:08;;;;;;;2.78;2.58;;;34.00;45.20;;;;;;5030048;28;20043;-82
2023/06/22 09:03:37;;;;;;;4.75;2.78;;;33.90;45.10;;;;;;5041673;28;20053;-81
2023/06/22 09:06:03;;;;;;;2.95;2.75;;;33.90;45.10;;;;;;5033869;28;20059;-81
2023/06/22 09:08:30;;;;;;;2.45;2.25;;;33.90;45.50;;;;;;5053215;28;20048;-81
2023/06/22 09:10:56;;;;;;;2.63;2.40;;;33.90;44.80;;;;;;5045796;28;20033;-85
2023/06/22 09:13:23;;;;;;;2.72;2.53;;;33.90;44.60;;;;;;5010222;28;20051;-83
2023/06/22 09:15:52;;;;;;;3.10;2.40;;;34.00;44.60;;;;;;5048994;28;20476;-82
2023/06/22 09:18:18;;;;;;;2.92;2.65;;;34.10;44.50;;;;;;5024387;28;20272;-82
2023/06/22 09:20:45;;;;;;;2.15;1.98;;;34.20;44.40;;;;;;5028598;28;20028;-82
2023/06/22 09:23:11;;;;;;;2.85;2.38;;;34.30;44.40;;;;;;5047416;28;20860;-82
2023/06/22 09:25:40;;;;;;;2.58;2.20;;;34.40;44.30;;;;;;5035054;28;20048;-83
2023/06/22 09:28:09;;;;;;;2.80;2.60;;;34.50;44.10;;;;;;5044971;28;20037;-83
2023/06/22 09:30:35;;;;;;;2.70;2.50;;;34.60;43.90;;;;;;5044192;28;20032;-84
2023/06/22 09:33:02;;;;;;;3.63;2.97;;;34.70;43.70;;;;;;5055122;28;20032;-84
2023/06/22 09:35:28;;;;;;;2.47;2.28;;;34.70;43.50;;;;;;5036138;28;20593;-82
2023/06/22 09:37:54;;;;;;;2.80;2.45;;;34.80;43.50;;;;;;5031801;28;20028;-83
2023/06/22 09:40:23;;;;;;;3.30;2.42;;;34.80;43.30;;;;;;5028318;28;20364;-83
2023/06/22 09:42:49;;;;;;;2.65;2.45;;;34.90;43.20;;;;;;5052096;28;20075;-82
2023/06/22 09:45:18;;;;;;;2.67;2.47;;;35.00;43.10;;;;;;5033470;28;20149;-82
2023/06/22 10:13:44;;;;;;;2.35;2.15;;;35.10;43.10;;;;;;5045747;28;20102;-84
2023/06/22 10:16:11;;;;;;;2.45;2.25;;;35.30;43.10;;;;;;5034872;28;20037;-83
2023/06/22 10:18:37;;;;;;;2.10;1.90;;;35.50;42.80;;;;;;5050445;28;20362;-83
2023/06/22 10:21:03;;;;;;;2.10;1.90;;;35.60;42.60;;;;;;5040467;28;20037;-83
2023/06/22 10:23:28;;;;;;;2.17;1.98;;;35.70;42.40;;;;;;5015722;28;20323;-82
2023/06/22 10:25:57;;;;;;;1.83;1.73;;;35.90;42.20;;;;;;5049949;28;20063;-82
2023/06/22 10:28:26;;;;;;;2.38;2.17;;;36.00;42.00;;;;;;5040843;28;20152;-83
2023/06/22 10:30:54;;;;;;;2.55;2.10;;;36.10;41.90;;;;;;5020507;28;20067;-82
2023/06/22 10:33:20;;;;;;;2.55;2.00;;;36.20;41.60;;;;;;5071930;28;20036;-83
2023/06/22 10:35:47;;;;;;;2.28;2.08;;;36.20;41.40;;;;;;5053290;28;20185;-84
2023/06/22 10:38:16;;;;;;;2.08;1.88;;;36.30;41.40;;;;;;5036993;28;20404;-83
2023/06/22 10:40:47;;;;;;;2.58;1.77;;;36.30;41.20;;;;;;5055534;28;20143;-84
2023/06/22 10:43:13;;;;;;;1.95;1.73;;;36.40;41.10;;;;;;5058821;28;20119;-83
2023/06/22 10:45:39;;;;;;;2.53;2.20;;;36.50;41.10;;;;;;5038466;28;20040;-84
2023/06/22 10:48:05;;;;;;;2.40;2.08;;;36.50;41.00;;;;;;5047487;28;20048;-85
2023/06/22 10:50:33;;;;;;;2.47;1.67;;;36.60;40.90;;;;;;5040872;28;20032;-84
2023/06/22 10:53:02;;;;;;;2.40;1.60;;;36.70;40.90;;;;;;5038634;28;20502;-82
2023/06/22 10:55:28;;;;;;;2.60;2.03;;;36.80;40.80;;;;;;5028891;28;20036;-85
2023/06/22 10:57:54;;;;;;;2.42;2.10;;;36.90;40.70;;;;;;5049672;28;20036;-85
2023/06/22 11:00:21;;;;;;;2.75;2.20;;;36.90;40.60;;;;;;5025230;28;20036;-84
2023/06/22 11:02:47;;;;;;;2.30;2.03;;;37.10;40.60;;;;;;5022234;28;20115;-81
2023/06/22 11:05:13;;;;;;;1.90;1.80;;;37.20;40.50;;;;;;5030223;28;20036;-83
2023/06/22 11:07:43;;;;;;;2.17;1.98;;;37.30;40.40;;;;;;5046005;28;20301;-82
2023/06/22 11:10:10;;;;;;;2.05;1.85;;;37.30;40.20;;;;;;5039705;28;20258;-83
2023/06/22 11:12:36;;;;;;;1.85;1.73;;;37.40;40.10;;;;;;5041174;28;20039;-82
2023/06/22 11:15:03;;;;;;;2.83;2.20;;;37.60;40.10;;;;;;5049889;28;20148;-81
2023/06/22 11:17:29;;;;;;;1.88;1.77;;;37.70;40.00;;;;;;5035188;28;20039;-81
2023/06/22 11:20:00;;;;;;;2.03;1.88;;;37.80;39.80;;;;;;5030906;28;20102;-81
2023/06/22 11:22:26;;;;;;;2.47;1.90;;;37.90;39.80;;;;;;5027305;28;20044;-81
2023/06/22 11:24:52;;;;;;;2.13;1.92;;;37.90;39.60;;;;;;5056371;28;20048;-82
2023/06/22 11:27:18;;;;;;;2.05;1.92;;;38.00;39.50;;;;;;5024501;28;20048;-83
2023/06/22 11:29:44;;;;;;;2.53;2.33;;;38.10;39.40;;;;;;5025241;28;20032;-84
2023/06/22 11:32:15;;;;;;;1.92;1.83;;;38.20;39.40;;;;;;5028269;28;20055;-84
2023/06/22 11:34:41;;;;;;;2.10;1.90;;;38.30;39.40;;;;;;5037917;28;20044;-83
2023/06/22 11:37:08;;;;;;;2.17;1.98;;;38.30;39.20;;;;;;5031850;28;20056;-84
2023/06/22 11:39:34;;;;;;;2.13;2.03;;;38.40;39.10;;;;;;5031490;28;20037;-84
2023/06/22 11:42:12;;;;;;;1.85;1.75;;;38.40;39.00;;;;;;5034690;28;20092;-83
2023/06/22 11:44:38;;;;;;;2.05;1.95;;;38.50;39.00;;;;;;5020287;28;20045;-82
2023/06/22 11:47:05;;;;;;;4.30;2.20;;;38.50;38.90;;;;;;5023899;28;20076;-83
2023/06/22 11:49:34;;;;;;;2.10;2.00;;;38.50;38.70;;;;;;5047087;28;20488;-82
2023/06/22 11:52:00;;;;;;;2.30;2.00;;;38.50;38.70;;;;;;5052487;28;20048;-82
2023/06/22 11:54:26;;;;;;;1.85;1.75;;;38.60;38.70;;;;;;5037388;28;20040;-81
2023/06/22 11:56:52;;;;;;;2.10;1.88;;;38.60;38.60;;;;;;5038579;28;20043;-82
2023/06/22 11:59:18;;;;;;;2.40;2.20;;;38.70;38.60;;;;;;5051728;28;20040;-82
2023/06/22 12:01:48;;;;;;;2.20;1.80;;;38.70;38.60;;;;;;5038686;28;20218;-84
2023/06/22 12:04:14;;;;;;;1.73;1.63;;;38.80;38.60;;;;;;5048778;28;20284;-83
2023/06/22 12:06:42;;;;;;;2.38;1.98;;;38.80;38.50;;;;;;5043113;28;20476;-83
2023/06/22 12:09:09;;;;;;;2.83;2.28;;;38.80;38.40;;;;;;5039959;28;20036;-83
2023/06/22 12:11:35;;;;;;;1.90;1.67;;;38.90;38.30;;;;;;5051738;28;20079;-82
2023/06/22 12:14:04;;;;;;;1.83;1.70;;;38.90;38.30;;;;;;5035496;28;20040;-83
2023/06/22 12:16:30;;;;;;;2.08;1.80;;;38.90;38.30;;;;;;5059393;28;20021;-82
2023/06/22 12:18:59;;;;;;;1.83;1.73;;;38.90;38.20;;;;;;5043688;28;20126;-82
2023/06/22 12:21:31;;;;;;;2.13;1.88;;;39.00;38.20;;;;;;5032297;28;20028;-83
2023/06/22 12:23:57;;;;;;;1.60;1.50;;;39.10;38.20;;;;;;5048278;28;20044;-83
2023/06/22 12:26:23;;;;;;;1.48;1.38;;;39.10;38.10;;;;;;5053925;28;20430;-84
2023/06/22 12:28:55;;;;;;;1.70;1.60;;;39.20;38.10;;;;;;5040080;28;20808;-84
2023/06/22 12:31:21;;;;;;;2.70;2.08;;;39.20;38.10;;;;;;5040380;28;20127;-83
2023/06/22 12:33:47;;;;;;;2.25;2.03;;;39.20;38.00;;;;;;5044773;28;20040;-84
2023/06/22 12:36:13;;;;;;;3.13;1.92;;;39.30;38.00;;;;;;5058874;28;20515;-84
2023/06/22 12:38:42;;;;;;;1.85;1.75;;;39.40;38.00;;;;;;5056101;28;20123;-84
2023/06/22 12:41:08;;;;;;;1.88;1.77;;;39.30;37.80;;;;;;5047804;28;20104;-83
2023/06/22 12:43:34;;;;;;;1.58;1.48;;;39.40;37.90;;;;;;5042299;28;20278;-83
2023/06/22 12:46:00;;;;;;;2.15;1.70;;;39.50;37.80;;;;;;5054511;28;20697;-84
2023/06/22 12:48:27;;;;;;;2.03;1.90;;;39.50;37.70;;;;;;5039086;28;20036;-84
2023/06/22 12:50:53;;;;;;;2.10;2.00;;;39.60;37.70;;;;;;5066072;28;20025;-86
2023/06/22 12:53:19;;;;;;;1.67;1.58;;;39.60;37.60;;;;;;5058598;28;20154;-84
2023/06/22 12:55:48;;;;;;;2.00;1.90;;;39.70;37.60;;;;;;5044040;28;20900;-84
2023/06/22 12:58:17;;;;;;;2.03;1.65;;;39.80;37.60;;;;;;5056739;28;20126;-84
2023/06/22 13:00:43;;;;;;;1.98;1.77;;;39.80;37.40;;;;;;5037482;28;20036;-82
2023/06/22 13:03:12;;;;;;;2.83;2.00;;;39.90;37.40;;;;;;5071921;28;20040;-85
2023/06/22 13:05:38;;;;;;;2.58;1.95;;;39.90;37.30;;;;;;5081435;28;20017;-83
2023/06/22 13:08:04;;;;;;;1.88;1.73;;;40.00;37.30;;;;;;5082595;28;20044;-82
2023/06/22 13:10:30;;;;;;;2.03;1.67;;;40.10;37.20;;;;;;5078781;28;20457;-84
2023/06/22 13:13:00;;;;;;;1.92;1.83;;;40.20;37.20;;;;;;5086505;28;20102;-83
2023/06/22 13:15:30;;;;;;;1.70;1.52;;;40.20;37.10;;;;;;5057329;28;20028;-84
2023/06/22 13:18:04;;;;;;;1.60;1.50;;;40.30;37.00;;;;;;5079950;28;20017;-84